Time;durP1;ratioP1;P1;durP2;ratioP2;P2;SDS_P1;SDS_P2;PMS_P1;PMS_P2;Temp;Humidity;BMP_temperature;BMP_pressure;BME280_temperature;BME280_humidity;BME280_pressure;Samples;Min_cycle;Max_cycle;Signal;HPM_P1;HPM_P2
2021/04/02 00:01:53;;;;;;;3.73;2.70;;;5.80;99.90;;;;;;4394565;32;20145;-74
2021/04/02 00:04:19;;;;;;;5.27;2.93;;;5.80;99.90;;;;;;4395530;32;20140;-74
2021/04/02 00:06:46;;;;;;;3.53;2.80;;;5.70;99.90;;;;;;4395975;32;20150;-74
2021/04/02 00:09:13;;;;;;;3.77;2.87;;;5.60;99.90;;;;;;4394346;32;20509;-74
2021/04/02 00:11:41;;;;;;;3.17;2.43;;;5.60;99.90;;;;;;4394221;32;20151;-74
2021/04/02 00:14:08;;;;;;;3.47;2.33;;;5.70;99.90;;;;;;4394657;32;20235;-74
2021/04/02 00:16:35;;;;;;;2.90;2.47;;;5.70;99.90;;;;;;4393173;32;20172;-74
2021/04/02 00:19:04;;;;;;;3.23;2.37;;;5.70;99.90;;;;;;4395870;32;20246;-74
2021/04/02 00:21:31;;;;;;;3.00;2.60;;;5.60;99.90;;;;;;4393725;32;20510;-74
2021/04/02 00:23:57;;;;;;;3.10;2.30;;;5.70;99.90;;;;;;4393727;32;20406;-74
2021/04/02 00:26:25;;;;;;;2.70;2.17;;;5.70;99.90;;;;;;4395133;32;20411;-74
2021/04/02 00:28:56;;;;;;;3.63;2.47;;;5.70;99.90;;;;;;4394248;32;20480;-74
2021/04/02 00:31:23;;;;;;;4.17;2.50;;;5.70;99.90;;;;;;4394248;32;20416;-74
2021/04/02 00:33:50;;;;;;;3.50;2.47;;;5.70;99.90;;;;;;4394343;32;20198;-74
2021/04/02 00:36:17;;;;;;;3.27;2.50;;;5.60;99.90;;;;;;4394122;32;20176;-74
2021/04/02 00:38:43;;;;;;;4.67;2.70;;;5.60;99.90;;;;;;4394024;32;20470;-74
2021/04/02 00:41:12;;;;;;;4.27;2.53;;;5.60;99.90;;;;;;4394104;32;20186;-74
2021/04/02 00:43:41;;;;;;;4.63;3.20;;;5.50;99.90;;;;;;4394031;32;20151;-74
2021/04/02 00:46:10;;;;;;;3.43;2.57;;;5.50;99.90;;;;;;4393417;32;20498;-74
2021/04/02 00:48:38;;;;;;;4.20;2.90;;;5.50;99.90;;;;;;4395444;32;20149;-74
2021/04/02 00:51:09;;;;;;;3.20;2.33;;;5.50;99.90;;;;;;4394421;32;20459;-74
2021/04/02 00:53:39;;;;;;;2.67;2.40;;;5.40;99.90;;;;;;4394870;32;20462;-74
2021/04/02 00:56:06;;;;;;;3.40;2.47;;;5.40;99.90;;;;;;4393943;32;20546;-74
2021/04/02 00:58:35;;;;;;;3.27;2.50;;;5.30;99.90;;;;;;4393843;32;20137;-74
2021/04/02 01:01:06;;;;;;;3.53;2.50;;;5.40;99.90;;;;;;4395014;32;20156;-74
2021/04/02 01:03:33;;;;;;;3.13;2.40;;;5.30;99.90;;;;;;4393789;32;20230;-74
2021/04/02 01:06:03;;;;;;;4.60;2.57;;;5.30;99.90;;;;;;4393510;32;20264;-74
2021/04/02 01:08:33;;;;;;;3.57;2.47;;;5.20;99.90;;;;;;4395151;32;20496;-74
2021/04/02 01:11:02;;;;;;;4.43;2.70;;;5.20;99.90;;;;;;4395200;32;20144;-74
2021/04/02 01:13:41;;;;;;;3.10;2.57;;;5.10;99.90;;;;;;4393814;32;20139;-74
2021/04/02 01:16:16;;;;;;;5.07;2.70;;;5.00;99.90;;;;;;4394645;32;20174;-74
2021/04/02 01:19:33;;;;;;;4.07;2.70;;;5.00;99.90;;;;;;4393741;32;20139;-74
2021/04/02 01:22:04;;;;;;;2.90;2.40;;;4.90;99.90;;;;;;4378074;32;20153;-74
2021/04/02 01:24:49;;;;;;;3.57;2.50;;;4.90;99.90;;;;;;4378071;32;20210;-74
2021/04/02 01:27:53;;;;;;;3.17;2.30;;;4.90;99.90;;;;;;4376818;32;20178;-74
2021/04/02 01:30:20;;;;;;;4.23;2.53;;;4.90;99.90;;;;;;4359613;32;20167;-74
2021/04/02 01:32:50;;;;;;;3.43;2.47;;;4.80;99.90;;;;;;4376665;32;20161;-74
2021/04/02 01:35:23;;;;;;;3.43;2.40;;;4.80;99.90;;;;;;4376435;32;20168;-74
2021/04/02 01:38:13;;;;;;;3.20;2.20;;;4.70;99.90;;;;;;4377070;32;20160;-74
2021/04/02 01:40:43;;;;;;;2.63;2.00;;;4.70;99.90;;;;;;4376282;32;20149;-74
2021/04/02 01:43:14;;;;;;;2.87;1.87;;;4.60;99.90;;;;;;4376154;32;20509;-74
2021/04/02 01:45:43;;;;;;;2.47;1.90;;;4.60;99.90;;;;;;4378368;32;20152;-74
2021/04/02 01:48:12;;;;;;;2.30;1.73;;;4.60;99.90;;;;;;4378040;32;20152;-74
2021/04/02 01:50:42;;;;;;;3.23;1.80;;;4.40;99.90;;;;;;4375820;32;20168;-74
2021/04/02 01:53:10;;;;;;;2.77;1.70;;;4.30;99.90;;;;;;4389600;32;20577;-74
2021/04/02 01:55:41;;;;;;;2.00;1.53;;;4.20;99.90;;;;;;4393690;32;20152;-74
2021/04/02 01:58:09;;;;;;;2.37;1.70;;;4.20;99.90;;;;;;4393693;32;20166;-74
2021/04/02 02:01:02;;;;;;;2.87;1.70;;;4.20;99.90;;;;;;4393712;32;20158;-74
2021/04/02 02:03:31;;;;;;;3.50;1.80;;;4.10;99.90;;;;;;4395130;32;20206;-74
2021/04/02 02:05:59;;;;;;;2.67;2.00;;;4.00;99.90;;;;;;4393741;32;20151;-74
2021/04/02 02:08:26;;;;;;;4.57;2.00;;;3.90;99.90;;;;;;4393412;32;20506;-74
2021/04/02 02:11:15;;;;;;;2.77;1.80;;;4.00;99.90;;;;;;4393554;32;20148;-75
2021/04/02 02:13:45;;;;;;;2.57;1.60;;;4.00;99.90;;;;;;4393292;32;20186;-75
2021/04/02 02:16:12;;;;;;;2.50;1.70;;;3.90;99.90;;;;;;4393596;32;20186;-74
2021/04/02 02:18:41;;;;;;;2.60;1.83;;;3.90;99.90;;;;;;4396923;32;20151;-74
2021/04/02 02:21:10;;;;;;;1.80;1.70;;;3.70;99.90;;;;;;4397213;32;20148;-74
2021/04/02 02:23:43;;;;;;;2.20;1.60;;;3.70;99.90;;;;;;4396282;32;20226;-74
2021/04/02 02:26:10;;;;;;;3.20;1.90;;;3.80;99.90;;;;;;4397723;32;20147;-74
2021/04/02 02:28:37;;;;;;;2.57;1.90;;;3.80;99.90;;;;;;4396949;32;20344;-74
2021/04/02 02:31:06;;;;;;;2.57;1.70;;;3.70;99.90;;;;;;4397512;32;20148;-74
2021/04/02 02:33:33;;;;;;;2.10;1.87;;;3.70;99.90;;;;;;4396016;32;20140;-74
2021/04/02 02:36:00;;;;;;;1.90;1.60;;;3.70;99.90;;;;;;4395995;32;20151;-74
2021/04/02 02:38:28;;;;;;;3.73;2.13;;;3.70;99.90;;;;;;4396079;32;20175;-74
2021/04/02 02:40:55;;;;;;;3.67;2.00;;;3.70;99.90;;;;;;4394998;32;20439;-74
2021/04/02 02:43:22;;;;;;;3.17;2.10;;;3.60;99.90;;;;;;4396766;32;20193;-74
2021/04/02 02:45:49;;;;;;;2.63;2.13;;;3.50;99.90;;;;;;4395904;32;20211;-74
2021/04/02 02:48:15;;;;;;;3.30;2.10;;;3.50;99.90;;;;;;4395492;32;20179;-74
2021/04/02 02:50:47;;;;;;;2.27;1.83;;;3.60;99.90;;;;;;4395785;32;20148;-74
2021/04/02 02:53:17;;;;;;;3.03;2.10;;;3.50;99.90;;;;;;4397173;32;20171;-74
2021/04/02 02:55:45;;;;;;;3.60;2.43;;;3.50;99.90;;;;;;4395673;32;20155;-74
2021/04/02 02:58:16;;;;;;;3.77;2.10;;;3.50;99.90;;;;;;4395607;32;20205;-74
2021/04/02 03:00:44;;;;;;;2.80;2.50;;;3.50;99.90;;;;;;4395997;32;20182;-74
2021/04/02 03:03:17;;;;;;;3.43;2.20;;;3.50;99.90;;;;;;4395624;32;20420;-74
2021/04/02 03:05:47;;;;;;;3.73;2.20;;;3.50;99.90;;;;;;4395561;32;20168;-74
2021/04/02 03:08:20;;;;;;;4.40;2.30;;;3.50;99.90;;;;;;4395747;32;20375;-74
2021/04/02 03:10:47;;;;;;;4.20;2.50;;;3.60;99.90;;;;;;4395609;32;20173;-74
2021/04/02 03:13:19;;;;;;;3.60;2.33;;;3.60;99.90;;;;;;4397039;32;20174;-74
2021/04/02 03:15:47;;;;;;;3.67;2.40;;;3.60;99.90;;;;;;4395506;32;20172;-74
2021/04/02 03:18:18;;;;;;;3.20;2.53;;;3.60;99.90;;;;;;4395866;32;20166;-74
2021/04/02 03:20:48;;;;;;;5.53;2.80;;;3.50;99.90;;;;;;4395488;32;20171;-74
2021/04/02 03:23:16;;;;;;;3.23;2.73;;;3.40;99.90;;;;;;4396847;32;20502;-74
2021/04/02 03:25:47;;;;;;;3.60;2.90;;;3.30;99.90;;;;;;4395640;32;20428;-74
2021/04/02 03:28:16;;;;;;;4.40;2.97;;;3.30;99.90;;;;;;4395863;32;20396;-74
2021/04/02 03:30:43;;;;;;;4.33;2.80;;;3.20;99.90;;;;;;4396155;32;20155;-74
2021/04/02 03:33:17;;;;;;;3.83;2.70;;;3.30;99.90;;;;;;4394664;32;20155;-74
2021/04/02 03:35:45;;;;;;;4.27;2.63;;;3.30;99.90;;;;;;4395346;32;20147;-74
2021/04/02 03:38:15;;;;;;;4.87;2.63;;;3.30;99.90;;;;;;4395172;32;20444;-74
2021/04/02 03:40:46;;;;;;;4.17;2.77;;;3.20;99.90;;;;;;4396432;32;20163;-74
2021/04/02 03:43:14;;;;;;;3.60;3.00;;;3.20;99.90;;;;;;4395155;32;20483;-74
2021/04/02 03:45:46;;;;;;;5.07;3.30;;;3.20;99.90;;;;;;4395184;32;20542;-74
2021/04/02 03:48:14;;;;;;;3.63;2.93;;;3.10;99.90;;;;;;4394991;32;20139;-74
2021/04/02 03:50:45;;;;;;;4.13;3.30;;;3.10;99.90;;;;;;4395944;32;20168;-74
2021/04/02 03:53:30;;;;;;;6.80;3.27;;;3.20;99.90;;;;;;4396609;32;20145;-74
2021/04/02 03:55:59;;;;;;;4.90;3.30;;;3.10;99.90;;;;;;4394868;32;20208;-74
2021/04/02 03:58:27;;;;;;;3.83;3.10;;;3.00;99.90;;;;;;4396362;32;20213;-74
2021/04/02 04:01:07;;;;;;;4.33;3.03;;;2.90;99.90;;;;;;4394750;32;20152;-74
2021/04/02 04:03:36;;;;;;;6.40;3.40;;;2.90;99.90;;;;;;4395124;32;20200;-74
2021/04/02 04:06:06;;;;;;;4.13;3.27;;;2.90;99.90;;;;;;4394707;32;20143;-74
2021/04/02 04:08:34;;;;;;;4.57;3.13;;;3.00;99.90;;;;;;4394502;32;20167;-74
2021/04/02 04:11:02;;;;;;;4.53;3.27;;;3.00;99.90;;;;;;4394696;32;20227;-74
2021/04/02 04:13:30;;;;;;;6.80;3.60;;;3.10;99.90;;;;;;4394900;32;20155;-74
2021/04/02 04:15:59;;;;;;;4.93;3.43;;;3.10;99.90;;;;;;4394631;32;20183;-74
2021/04/02 04:18:27;;;;;;;4.67;3.30;;;3.10;99.90;;;;;;4394651;32;20142;-74
2021/04/02 04:20:58;;;;;;;6.67;3.57;;;3.10;99.90;;;;;;4395711;32;20148;-74
2021/04/02 04:23:26;;;;;;;3.73;3.33;;;3.10;99.90;;;;;;4396213;32;20148;-74
2021/04/02 04:25:55;;;;;;;7.23;3.77;;;3.10;99.90;;;;;;4394453;32;20144;-74
2021/04/02 04:28:23;;;;;;;5.10;3.50;;;3.10;99.90;;;;;;4396088;32;20401;-74
2021/04/02 04:30:53;;;;;;;4.47;3.47;;;3.10;99.90;;;;;;4394365;32;20185;-74
2021/04/02 04:33:22;;;;;;;5.10;3.90;;;3.10;99.90;;;;;;4393829;32;20486;-75
2021/04/02 04:35:50;;;;;;;4.20;3.80;;;3.00;99.90;;;;;;4394256;32;20160;-74
2021/04/02 04:38:18;;;;;;;5.30;4.20;;;3.00;99.90;;;;;;4393823;32;20473;-74
2021/04/02 04:40:45;;;;;;;6.37;4.27;;;3.00;99.90;;;;;;4393796;32;20197;-75
2021/04/02 04:43:13;;;;;;;6.90;4.30;;;3.00;99.90;;;;;;4393227;32;20470;-74
2021/04/02 04:45:40;;;;;;;6.63;4.27;;;3.00;99.90;;;;;;4395659;32;20162;-74
2021/04/02 04:48:07;;;;;;;6.73;4.17;;;3.10;99.90;;;;;;4394232;32;20166;-74
2021/04/02 04:50:34;;;;;;;5.67;4.23;;;3.10;99.90;;;;;;4394549;32;20170;-74
2021/04/02 04:53:08;;;;;;;6.37;4.40;;;3.10;99.90;;;;;;4394120;32;20142;-74
2021/04/02 04:55:37;;;;;;;7.00;4.30;;;3.10;99.90;;;;;;4393993;32;20437;-74
2021/04/02 04:58:06;;;;;;;5.87;3.90;;;3.10;99.90;;;;;;4395033;32;20145;-75
2021/04/02 05:00:33;;;;;;;5.80;4.00;;;3.10;99.90;;;;;;4395526;32;20144;-74
2021/04/02 05:03:02;;;;;;;9.43;4.10;;;3.20;99.90;;;;;;4393532;32;20140;-74
2021/04/02 05:05:34;;;;;;;7.07;4.10;;;3.20;99.90;;;;;;4394246;32;20186;-74
2021/04/02 05:08:05;;;;;;;5.57;4.30;;;3.20;99.90;;;;;;4394843;32;20197;-75
2021/04/02 05:10:33;;;;;;;6.93;4.20;;;3.20;99.90;;;;;;4394262;32;20144;-74
2021/04/02 05:13:01;;;;;;;4.83;3.93;;;3.30;99.90;;;;;;4393971;32;20147;-74
2021/04/02 05:15:29;;;;;;;6.80;4.50;;;3.30;99.90;;;;;;4394092;32;20156;-74
2021/04/02 05:17:57;;;;;;;6.53;4.27;;;3.40;99.90;;;;;;4393868;32;20169;-75
2021/04/02 05:20:37;;;;;;;7.70;4.70;;;3.50;99.90;;;;;;4393823;32;20488;-74
2021/04/02 05:23:04;;;;;;;7.20;4.23;;;3.50;99.90;;;;;;4393877;32;20171;-74
2021/04/02 05:25:30;;;;;;;6.20;4.40;;;3.60;99.90;;;;;;4393845;32;20189;-74
2021/04/02 05:27:57;;;;;;;5.60;4.13;;;3.60;99.90;;;;;;4393897;32;20196;-74
2021/04/02 05:30:24;;;;;;;6.37;4.23;;;3.60;99.90;;;;;;4394466;32;20384;-74
2021/04/02 05:32:54;;;;;;;7.27;4.60;;;3.60;99.90;;;;;;4393504;32;20140;-74
2021/04/02 05:35:21;;;;;;;6.00;4.73;;;3.70;99.90;;;;;;4393596;32;20197;-74
2021/04/02 05:37:48;;;;;;;6.57;4.70;;;3.80;99.90;;;;;;4393692;32;20162;-74
2021/04/02 05:40:15;;;;;;;7.80;5.20;;;3.90;99.90;;;;;;4393708;32;20422;-74
2021/04/02 05:42:50;;;;;;;7.30;5.33;;;4.00;99.90;;;;;;4393232;32;20186;-74
2021/04/02 05:45:18;;;;;;;11.27;6.73;;;4.00;99.90;;;;;;4393300;32;20173;-74
2021/04/02 05:47:48;;;;;;;15.70;9.60;;;4.00;99.90;;;;;;4393591;32;20225;-74
2021/04/02 05:50:15;;;;;;;15.70;10.07;;;4.00;99.90;;;;;;4395220;32;20244;-74
2021/04/02 05:52:47;;;;;;;31.40;17.90;;;4.00;99.90;;;;;;4396531;32;20154;-75
2021/04/02 05:55:15;;;;;;;33.33;20.47;;;3.90;99.90;;;;;;4396963;32;20183;-74
2021/04/02 05:57:42;;;;;;;35.67;22.87;;;3.80;99.90;;;;;;4396682;32;20163;-75
2021/04/02 06:00:09;;;;;;;37.00;23.33;;;3.90;99.90;;;;;;4396554;32;20186;-74
2021/04/02 06:02:36;;;;;;;39.83;23.93;;;4.00;99.90;;;;;;4396152;32;20176;-74
2021/04/02 06:05:02;;;;;;;37.30;24.00;;;4.10;99.90;;;;;;4396480;32;20140;-75
2021/04/02 06:07:29;;;;;;;36.67;22.90;;;4.20;99.90;;;;;;4396195;32;20167;-75
2021/04/02 06:09:55;;;;;;;38.53;23.27;;;4.30;99.90;;;;;;4397883;32;20183;-74
2021/04/02 06:12:24;;;;;;;35.27;23.30;;;4.50;99.90;;;;;;4396245;32;20136;-74
2021/04/02 06:14:51;;;;;;;36.33;22.33;;;4.60;99.90;;;;;;4396183;32;20157;-74
2021/04/02 06:17:17;;;;;;;35.40;21.63;;;4.70;99.90;;;;;;4396030;32;20179;-74
2021/04/02 06:19:44;;;;;;;34.30;21.13;;;4.80;99.90;;;;;;4396177;32;20161;-75
2021/04/02 06:22:10;;;;;;;32.40;19.60;;;5.00;99.90;;;;;;4396191;32;20170;-75
2021/04/02 06:24:42;;;;;;;35.03;20.13;;;5.20;99.90;;;;;;4396180;32;20140;-75
2021/04/02 06:27:14;;;;;;;34.70;20.90;;;5.30;99.90;;;;;;4395812;32;20149;-75
2021/04/02 06:29:43;;;;;;;37.10;20.53;;;5.20;99.90;;;;;;4395499;32;20166;-72
2021/04/02 06:32:31;;;;;;;38.00;20.63;;;5.20;99.90;;;;;;4395324;32;20144;-72
2021/04/02 06:35:08;;;;;;;35.10;20.73;;;5.30;99.90;;;;;;4397255;32;20147;-72
2021/04/02 06:37:36;;;;;;;26.77;15.57;;;5.60;99.90;;;;;;4395948;32;20206;-72
2021/04/02 06:40:19;;;;;;;28.37;15.90;;;5.70;99.90;;;;;;4395865;32;20448;-72
2021/04/02 06:42:46;;;;;;;28.00;15.73;;;5.70;99.90;;;;;;4395992;32;20236;-72
2021/04/02 06:45:14;;;;;;;27.37;15.77;;;5.80;99.90;;;;;;4397316;32;20170;-72
2021/04/02 06:47:43;;;;;;;29.80;16.00;;;5.80;99.90;;;;;;4395814;32;20170;-71
2021/04/02 06:50:15;;;;;;;27.10;15.20;;;5.70;99.90;;;;;;4397617;32;20502;-71
2021/04/02 06:52:41;;;;;;;28.90;16.30;;;5.70;99.90;;;;;;4397599;32;20152;-72
2021/04/02 06:55:12;;;;;;;30.27;17.60;;;5.80;99.90;;;;;;4410802;32;20147;-72
2021/04/02 06:57:45;;;;;;;31.30;17.13;;;5.80;99.90;;;;;;4412405;32;20176;-71
2021/04/02 07:00:16;;;;;;;19.77;11.03;;;5.80;99.90;;;;;;4412020;32;20197;-72
2021/04/02 07:02:45;;;;;;;16.43;9.47;;;5.60;99.90;;;;;;4411437;32;20168;-72
2021/04/02 07:05:14;;;;;;;14.97;9.43;;;5.10;99.90;;;;;;4410554;32;20157;-72
2021/04/02 07:07:41;;;;;;;14.40;9.43;;;4.90;99.90;;;;;;4409318;32;20168;-72
2021/04/02 07:10:09;;;;;;;17.47;9.90;;;5.20;99.90;;;;;;4412388;32;20148;-72
2021/04/02 07:12:38;;;;;;;15.40;9.20;;;5.50;99.90;;;;;;4411543;32;20191;-72
2021/04/02 07:15:06;;;;;;;11.93;7.90;;;5.70;99.90;;;;;;4410391;32;20173;-71
2021/04/02 07:17:34;;;;;;;12.93;8.07;;;5.70;99.90;;;;;;4411600;32;20206;-71
2021/04/02 07:20:02;;;;;;;11.40;7.80;;;5.70;99.90;;;;;;4410247;32;20147;-71
2021/04/02 07:22:30;;;;;;;12.40;8.07;;;5.50;99.90;;;;;;4409948;32;20190;-72
2021/04/02 07:24:59;;;;;;;16.27;8.50;;;5.60;99.90;;;;;;4410538;32;20252;-72
2021/04/02 07:27:27;;;;;;;15.70;8.70;;;5.40;99.90;;;;;;4410498;32;20176;-72
2021/04/02 07:29:55;;;;;;;15.43;9.43;;;5.50;99.90;;;;;;4410490;32;20199;-71
2021/04/02 07:32:22;;;;;;;13.97;8.60;;;5.40;99.90;;;;;;4410414;32;20151;-72
2021/04/02 07:34:50;;;;;;;14.77;9.23;;;5.60;99.90;;;;;;4409739;32;20199;-72
2021/04/02 07:37:18;;;;;;;13.43;8.70;;;5.70;99.90;;;;;;4410110;32;20483;-73
2021/04/02 07:39:46;;;;;;;15.17;8.63;;;5.90;99.90;;;;;;4410177;32;20518;-72
2021/04/02 07:42:13;;;;;;;15.37;8.50;;;6.00;99.90;;;;;;4411711;32;20509;-72
2021/04/02 07:44:48;;;;;;;12.23;8.30;;;5.80;99.90;;;;;;4410112;32;20195;-72
2021/04/02 07:47:15;;;;;;;11.80;7.40;;;5.80;99.90;;;;;;4410286;32;20536;-72
2021/04/02 07:49:57;;;;;;;11.23;7.67;;;5.80;99.90;;;;;;4410122;32;20172;-71
2021/04/02 07:52:39;;;;;;;12.30;7.90;;;5.90;99.90;;;;;;4411563;32;20168;-72
2021/04/02 07:55:17;;;;;;;12.13;7.30;;;6.00;99.90;;;;;;4411416;32;20166;-70
2021/04/02 07:57:54;;;;;;;12.37;7.73;;;5.90;99.90;;;;;;4411207;32;20367;-71
2021/04/02 08:00:33;;;;;;;12.27;6.93;;;6.00;99.90;;;;;;4409753;32;20164;-71
2021/04/02 08:03:12;;;;;;;14.30;7.70;;;5.90;99.90;;;;;;4411401;32;20137;-71
2021/04/02 08:05:58;;;;;;;10.60;6.50;;;6.10;99.90;;;;;;4394558;32;20152;-72
2021/04/02 08:08:26;;;;;;;9.03;6.20;;;6.30;99.90;;;;;;4395082;32;20258;-72
2021/04/02 08:11:00;;;;;;;10.80;7.17;;;6.40;99.90;;;;;;4404648;32;20149;-72
2021/04/02 08:13:27;;;;;;;12.20;7.57;;;6.30;99.90;;;;;;4411150;32;20211;-72
2021/04/02 08:15:56;;;;;;;11.03;7.77;;;6.40;99.90;;;;;;4408958;32;20186;-73
2021/04/02 08:18:26;;;;;;;12.40;8.20;;;6.50;99.90;;;;;;4410883;32;20223;-73
2021/04/02 08:20:56;;;;;;;11.50;8.00;;;6.70;99.90;;;;;;4409179;32;20166;-72
2021/04/02 08:23:26;;;;;;;11.30;7.70;;;6.60;99.90;;;;;;4408446;32;20183;-72
2021/04/02 08:25:54;;;;;;;10.60;7.07;;;6.60;99.90;;;;;;4409338;32;20150;-71
2021/04/02 08:28:26;;;;;;;12.30;7.27;;;6.80;99.90;;;;;;4410029;32;20420;-72
2021/04/02 08:30:54;;;;;;;7.67;6.20;;;7.00;99.70;;;;;;4409128;32;20140;-71
2021/04/02 08:33:22;;;;;;;10.97;6.17;;;7.20;97.80;;;;;;4411021;32;20446;-71
2021/04/02 08:35:49;;;;;;;8.13;5.30;;;7.60;96.30;;;;;;4410804;32;20421;-71
2021/04/02 08:38:15;;;;;;;8.87;4.80;;;8.60;93.50;;;;;;4408654;32;20267;-72
2021/04/02 08:40:42;;;;;;;8.80;4.67;;;8.60;89.20;;;;;;4408842;32;20151;-71
2021/04/02 08:43:12;;;;;;;7.63;4.90;;;9.20;89.60;;;;;;4411275;32;20170;-72
2021/04/02 08:45:58;;;;;;;7.00;4.60;;;9.70;84.90;;;;;;4411176;32;20135;-71
2021/04/02 08:48:24;;;;;;;6.30;4.20;;;10.00;81.40;;;;;;4410930;32;20183;-70
2021/04/02 08:50:52;;;;;;;6.57;3.97;;;9.80;79.40;;;;;;4409253;32;20476;-71
2021/04/02 08:53:18;;;;;;;5.27;3.40;;;9.90;79.60;;;;;;4410173;32;20201;-71
2021/04/02 08:55:45;;;;;;;5.17;3.87;;;9.60;80.00;;;;;;4409163;32;20583;-71
2021/04/02 08:58:13;;;;;;;8.27;5.03;;;9.00;80.30;;;;;;4409540;32;20447;-72
2021/04/02 09:00:39;;;;;;;5.83;4.00;;;9.10;82.80;;;;;;4409458;32;20139;-73
2021/04/02 09:03:06;;;;;;;6.10;3.30;;;9.80;81.50;;;;;;4408793;32;20461;-71
2021/04/02 09:05:34;;;;;;;4.50;3.40;;;10.70;77.00;;;;;;4409673;32;20515;-71
2021/04/02 09:08:00;;;;;;;5.40;3.60;;;10.60;75.20;;;;;;4409458;32;20197;-71
2021/04/02 09:10:27;;;;;;;4.73;3.13;;;10.90;73.70;;;;;;4409227;32;20207;-69
2021/04/02 09:12:55;;;;;;;6.60;3.13;;;11.10;72.00;;;;;;4408462;32;20147;-70
2021/04/02 09:15:26;;;;;;;5.20;3.10;;;11.00;72.50;;;;;;4410352;32;20509;-72
2021/04/02 09:17:53;;;;;;;3.77;2.90;;;11.60;71.30;;;;;;4408814;32;20146;-70
2021/04/02 09:20:19;;;;;;;5.47;2.93;;;12.00;66.90;;;;;;4410392;32;20189;-70
2021/04/02 09:22:46;;;;;;;5.67;3.27;;;11.60;69.70;;;;;;4410458;32;20226;-69
2021/04/02 09:25:19;;;;;;;5.23;2.43;;;11.50;68.70;;;;;;4408856;32;20155;-69
2021/04/02 09:27:45;;;;;;;2.90;2.50;;;11.90;67.80;;;;;;4412575;32;20230;-69
2021/04/02 09:30:25;;;;;;;5.90;2.87;;;12.40;64.00;;;;;;4413448;32;20162;-70
2021/04/02 09:32:53;;;;;;;3.00;2.30;;;11.90;64.30;;;;;;4411885;32;20209;-71
2021/04/02 09:35:20;;;;;;;3.07;2.53;;;11.20;63.30;;;;;;4413409;32;20447;-70
2021/04/02 09:37:48;;;;;;;6.53;2.63;;;10.90;65.40;;;;;;4411881;32;20168;-71
2021/04/02 09:40:16;;;;;;;3.63;2.10;;;11.10;65.40;;;;;;4411674;32;20170;-70
2021/04/02 09:42:47;;;;;;;3.87;2.33;;;11.40;62.10;;;;;;4411602;32;20151;-70
2021/04/02 09:45:14;;;;;;;3.17;2.20;;;11.80;61.80;;;;;;4413069;32;20268;-70
2021/04/02 09:47:48;;;;;;;4.13;1.90;;;12.70;59.30;;;;;;4411444;32;20159;-68
2021/04/02 09:50:17;;;;;;;4.20;2.10;;;12.20;56.40;;;;;;4412708;32;20156;-69
2021/04/02 09:52:45;;;;;;;4.47;2.17;;;12.00;58.90;;;;;;4411426;32;20151;-69
2021/04/02 09:55:13;;;;;;;2.10;1.90;;;12.80;56.80;;;;;;4413087;32;20156;-70
2021/04/02 09:57:39;;;;;;;1.90;1.63;;;13.70;54.30;;;;;;4412759;32;20164;-69
2021/04/02 10:00:08;;;;;;;2.63;1.70;;;14.10;53.10;;;;;;4411215;32;20137;-71
2021/04/02 10:02:35;;;;;;;4.73;1.80;;;14.60;50.80;;;;;;4411159;32;20155;-70
2021/04/02 10:05:04;;;;;;;2.77;2.00;;;14.50;52.10;;;;;;4412754;32;20199;-71
2021/04/02 10:07:30;;;;;;;2.03;1.50;;;14.50;50.70;;;;;;4412339;32;20168;-70
2021/04/02 10:09:57;;;;;;;1.57;1.37;;;13.80;51.20;;;;;;4412443;32;20440;-70
2021/04/02 10:12:29;;;;;;;2.73;1.70;;;13.70;50.00;;;;;;4412048;32;20502;-71
2021/04/02 10:15:10;;;;;;;3.17;1.60;;;14.20;49.90;;;;;;4412923;32;20178;-70
2021/04/02 10:18:02;;;;;;;2.37;1.47;;;14.30;48.60;;;;;;4364184;32;20298;-70
2021/04/02 10:20:32;;;;;;;3.20;1.60;;;14.10;49.20;;;;;;4363999;32;20461;-69
2021/04/02 10:22:58;;;;;;;2.13;1.50;;;13.80;49.90;;;;;;4363805;32;20206;-69
2021/04/02 10:25:32;;;;;;;2.87;1.60;;;13.60;49.70;;;;;;4365110;32;20149;-70
2021/04/02 10:28:04;;;;;;;1.70;1.30;;;14.10;50.90;;;;;;4365094;32;20148;-69
2021/04/02 10:30:51;;;;;;;3.03;1.30;;;14.80;48.50;;;;;;4363955;32;20323;-68
2021/04/02 10:33:27;;;;;;;2.37;1.50;;;14.70;44.90;;;;;;4364127;32;20183;-69
2021/04/02 10:39:08;;;;;;;2.40;1.47;;;13.00;48.70;;;;;;4362092;32;20156;-69
2021/04/02 10:41:55;;;;;;;2.37;1.33;;;14.30;48.70;;;;;;4362568;32;20168;-69
2021/04/02 10:44:32;;;;;;;2.70;1.47;;;14.10;48.00;;;;;;4364718;32;20557;-69
2021/04/02 10:47:21;;;;;;;1.73;1.30;;;14.90;45.50;;;;;;4362674;32;20159;-69
2021/04/02 10:49:58;;;;;;;2.57;1.30;;;14.90;46.30;;;;;;4364923;32;20195;-68
2021/04/02 10:52:33;;;;;;;5.33;1.40;;;15.70;44.60;;;;;;4362809;32;20219;-70
2021/04/02 10:55:18;;;;;;;3.67;1.20;;;15.90;43.00;;;;;;4389004;32;20264;-68
2021/04/02 10:58:01;;;;;;;2.03;1.27;;;16.10;41.50;;;;;;4410922;32;20201;-69
2021/04/02 11:00:33;;;;;;;2.17;1.20;;;15.60;41.00;;;;;;4410717;32;20149;-70
2021/04/02 11:03:05;;;;;;;3.80;1.20;;;15.70;42.90;;;;;;4410517;32;20302;-69
2021/04/02 11:05:55;;;;;;;2.77;1.60;;;16.30;42.70;;;;;;4378461;32;20160;-69
2021/04/02 11:08:35;;;;;;;1.97;1.50;;;16.70;40.40;;;;;;4378135;32;20265;-69
2021/04/02 11:11:13;;;;;;;1.80;1.30;;;17.20;40.10;;;;;;4379125;32;20606;-69
2021/04/02 11:13:45;;;;;;;2.57;1.40;;;17.10;39.80;;;;;;4376982;32;20474;-69
2021/04/02 11:16:23;;;;;;;2.20;1.40;;;17.80;39.10;;;;;;4377271;32;20478;-69
2021/04/02 11:19:00;;;;;;;1.60;1.30;;;17.20;39.60;;;;;;4377374;32;20175;-67
2021/04/02 11:21:36;;;;;;;2.40;1.40;;;16.90;39.20;;;;;;4378108;32;20174;-68
2021/04/02 11:24:12;;;;;;;2.03;1.30;;;17.00;41.10;;;;;;4376855;32;20220;-68
2021/04/02 11:26:42;;;;;;;2.60;1.43;;;17.00;38.20;;;;;;4377482;32;20159;-69
2021/04/02 11:29:11;;;;;;;1.70;1.40;;;18.00;38.40;;;;;;4377284;32;20152;-68
2021/04/02 11:31:49;;;;;;;2.17;1.30;;;19.10;36.30;;;;;;4377099;32;20250;-70
2021/04/02 11:34:26;;;;;;;4.30;1.70;;;20.00;35.80;;;;;;4377264;32;20486;-69
2021/04/02 11:37:00;;;;;;;3.37;1.50;;;17.70;36.40;;;;;;4377471;32;20164;-69
2021/04/02 11:39:51;;;;;;;2.00;1.37;;;17.30;36.70;;;;;;4378228;32;20176;-69
2021/04/02 11:42:25;;;;;;;2.10;1.23;;;17.30;36.60;;;;;;4388264;32;20155;-71
2021/04/02 11:45:04;;;;;;;2.23;1.30;;;17.70;37.00;;;;;;4410035;32;20159;-70
2021/04/02 11:47:36;;;;;;;1.67;1.30;;;19.10;34.60;;;;;;4411216;32;20173;-68
2021/04/02 11:50:06;;;;;;;2.23;1.40;;;19.90;32.90;;;;;;4411033;32;20159;-68
2021/04/02 11:52:47;;;;;;;2.03;1.10;;;20.80;32.00;;;;;;4410068;32;20147;-69
2021/04/02 11:55:28;;;;;;;1.40;1.20;;;22.30;30.40;;;;;;4410869;32;20147;-67
2021/04/02 11:58:15;;;;;;;2.43;1.43;;;22.00;29.20;;;;;;4409598;32;20217;-69
2021/04/02 12:00:59;;;;;;;2.57;1.40;;;22.60;29.10;;;;;;4409618;32;20536;-68
2021/04/02 12:03:37;;;;;;;2.37;1.50;;;23.20;28.90;;;;;;4410703;32;20158;-68
2021/04/02 12:06:16;;;;;;;3.57;1.80;;;22.70;29.00;;;;;;4409664;32;20223;-69
2021/04/02 12:09:00;;;;;;;2.15;1.50;;;20.90;29.60;;;;;;4409892;32;20587;-68
2021/04/02 12:11:26;;;;;;;3.33;1.50;;;21.70;30.00;;;;;;4410099;32;20159;-68
2021/04/02 12:14:00;;;;;;;3.50;1.70;;;23.10;29.30;;;;;;4410960;32;20206;-68
2021/04/02 12:16:26;;;;;;;2.33;1.70;;;23.50;27.90;;;;;;4411530;32;20190;-69
2021/04/02 12:19:08;;;;;;;2.50;1.80;;;23.80;27.20;;;;;;4410117;32;20186;-68
2021/04/02 12:21:37;;;;;;;2.57;1.80;;;22.40;28.30;;;;;;4410539;32;20155;-67
2021/04/02 12:24:04;;;;;;;2.87;1.67;;;22.70;27.60;;;;;;4406437;32;20159;-68
2021/04/02 12:26:40;;;;;;;3.20;1.70;;;21.90;28.70;;;;;;4411086;32;20179;-68
2021/04/02 12:32:19;;;;;;;1.70;1.60;;;21.10;30.10;;;;;;4406459;32;20186;-68
2021/04/02 12:35:10;;;;;;;2.30;1.40;;;21.50;28.30;;;;;;4407779;32;20208;-67
2021/04/02 12:37:39;;;;;;;2.30;1.70;;;22.60;28.90;;;;;;4407768;32;20178;-69
2021/04/02 12:40:11;;;;;;;3.03;1.80;;;23.20;27.10;;;;;;4408422;32;20143;-69
2021/04/02 12:42:49;;;;;;;2.43;1.90;;;23.30;27.30;;;;;;4407969;32;20227;-69
2021/04/02 12:45:24;;;;;;;3.67;1.90;;;22.90;27.40;;;;;;4407074;32;20255;-68
2021/04/02 12:48:02;;;;;;;2.70;1.80;;;21.50;28.90;;;;;;4407809;32;20501;-68
2021/04/02 12:50:37;;;;;;;2.93;2.00;;;21.30;29.50;;;;;;4406879;32;20412;-68
2021/04/02 12:53:05;;;;;;;2.30;1.70;;;21.70;28.90;;;;;;4407002;32;20159;-69
2021/04/02 12:55:32;;;;;;;3.50;1.90;;;21.60;29.20;;;;;;4408247;32;20206;-68
2021/04/02 12:57:59;;;;;;;3.13;2.10;;;22.70;28.30;;;;;;4401441;32;20178;-69
2021/04/02 13:00:27;;;;;;;2.70;1.97;;;22.80;28.20;;;;;;4392482;32;20167;-68
2021/04/02 13:02:55;;;;;;;2.73;2.00;;;21.70;28.50;;;;;;4392177;32;20151;-69
2021/04/02 13:05:22;;;;;;;2.20;1.83;;;22.10;28.30;;;;;;4389584;32;20175;-69
2021/04/02 13:07:48;;;;;;;3.80;2.10;;;20.40;30.00;;;;;;4395422;32;20167;-67
2021/04/02 13:10:15;;;;;;;2.53;2.20;;;21.10;31.50;;;;;;4401446;32;20231;-69
2021/04/02 13:12:46;;;;;;;3.00;2.27;;;21.10;30.20;;;;;;4406567;32;20159;-69
2021/04/02 13:15:15;;;;;;;3.20;2.00;;;21.50;29.80;;;;;;4405149;32;20163;-70
2021/04/02 13:17:45;;;;;;;3.07;2.20;;;21.00;30.00;;;;;;4405081;32;20243;-69